Time;durP1;ratioP1;P1;durP2;ratioP2;P2;SDS_P1;SDS_P2;PMS_P1;PMS_P2;Temp;Humidity;BMP_temperature;BMP_pressure;BME280_temperature;BME280_humidity;BME280_pressure;Samples;Min_cycle;Max_cycle;Signal;HPM_P1;HPM_P2
2023/09/22 00:00:14;;;;;;;31.23;22.08;;;;;;;15.76;100.00;99997.22;5076304;28;20394;-72
2023/09/22 00:02:39;;;;;;;30.92;19.98;;;;;;;15.73;100.00;99999.31;5059393;28;20421;-72
2023/09/22 00:05:07;;;;;;;32.53;22.65;;;;;;;15.72;100.00;99986.84;5077417;28;20043;-71
2023/09/22 00:07:33;;;;;;;28.52;19.55;;;;;;;15.70;100.00;100004.94;5059241;28;20498;-70
2023/09/22 00:09:58;;;;;;;27.38;19.85;;;;;;;15.70;100.00;100011.16;5078206;28;20060;-70
2023/09/22 00:12:23;;;;;;;33.95;22.23;;;;;;;15.72;100.00;100003.81;5077955;28;20410;-70
2023/09/22 00:14:48;;;;;;;29.35;21.10;;;;;;;15.72;100.00;100003.81;5077897;28;20039;-71
2023/09/22 00:17:14;;;;;;;26.60;19.95;;;;;;;15.70;100.00;99989.66;5078512;28;20032;-71
2023/09/22 00:19:39;;;;;;;27.00;20.33;;;;;;;15.69;100.00;99995.19;5060157;28;20047;-72
2023/09/22 00:22:05;;;;;;;28.48;20.85;;;;;;;15.74;100.00;100006.38;5042294;28;20052;-73
2023/09/22 00:24:31;;;;;;;28.05;20.23;;;;;;;15.75;100.00;99998.19;5078583;28;20047;-71
2023/09/22 00:26:57;;;;;;;33.47;21.83;;;;;;;15.78;100.00;100003.31;5078455;28;20035;-71
2023/09/22 00:29:22;;;;;;;36.90;24.17;;;;;;;15.77;100.00;100003.44;5060158;28;20056;-71
2023/09/22 00:31:47;;;;;;;32.70;21.73;;;;;;;15.79;100.00;99998.78;5078017;28;20494;-70
2023/09/22 00:34:12;;;;;;;29.65;21.40;;;;;;;15.83;100.00;100010.94;5042575;28;20048;-70
2023/09/22 00:36:38;;;;;;;32.08;22.35;;;;;;;15.86;100.00;99989.19;5077292;28;20039;-70
2023/09/22 00:39:04;;;;;;;31.15;22.25;;;;;;;15.90;100.00;100007.59;5078157;28;20043;-70
2023/09/22 00:41:30;;;;;;;34.97;21.73;;;;;;;15.95;100.00;100009.88;5059294;28;20050;-72
2023/09/22 00:43:55;;;;;;;32.30;21.55;;;;;;;16.01;100.00;100003.97;5041865;28;20500;-70
2023/09/22 00:46:25;;;;;;;32.95;22.50;;;;;;;16.06;100.00;100006.25;5016312;28;20049;-71
2023/09/22 00:48:51;;;;;;;36.85;22.60;;;;;;;16.06;100.00;100003.56;5000632;28;20048;-70
2023/09/22 00:51:19;;;;;;;27.95;20.05;;;;;;;16.03;100.00;100023.50;5000764;28;20045;-71
2023/09/22 00:53:45;;;;;;;25.30;19.08;;;;;;;16.01;100.00;100003.13;5031043;28;20453;-71
2023/09/22 00:56:10;;;;;;;30.23;20.77;;;;;;;16.01;100.00;99995.06;5033966;28;20044;-71
2023/09/22 00:58:36;;;;;;;26.88;20.35;;;;;;;16.01;100.00;99985.16;5034231;28;20068;-71
2023/09/22 01:01:02;;;;;;;28.60;20.05;;;;;;;16.00;100.00;99990.66;5033779;28;20059;-73
2023/09/22 01:03:29;;;;;;;25.60;19.23;;;;;;;15.94;100.00;99986.66;5017390;28;20048;-67
2023/09/22 01:05:55;;;;;;;21.55;18.38;;;;;;;15.95;100.00;99991.91;5001681;28;20060;-68
2023/09/22 01:08:20;;;;;;;24.63;17.85;;;;;;;15.98;100.00;99998.84;5017466;28;20052;-72
2023/09/22 01:10:46;;;;;;;27.73;18.08;;;;;;;16.02;100.00;99992.22;5034027;28;20048;-71
2023/09/22 01:13:12;;;;;;;24.70;17.40;;;;;;;16.08;100.00;100004.28;5033732;28;20052;-70
2023/09/22 01:15:43;;;;;;;28.35;19.77;;;;;;;16.16;100.00;99996.38;5017688;28;20040;-70
2023/09/22 01:18:18;;;;;;;28.15;19.95;;;;;;;16.22;100.00;99995.84;5049768;28;20055;-69
2023/09/22 01:20:44;;;;;;;30.50;19.90;;;;;;;16.28;100.00;99989.88;5054261;28;20052;-69
2023/09/22 01:23:13;;;;;;;25.60;19.35;;;;;;;16.32;100.00;100002.94;5056295;28;20036;-70
2023/09/22 01:25:40;;;;;;;27.17;19.80;;;;;;;16.30;100.00;100020.22;5064331;28;20043;-69
2023/09/22 01:28:07;;;;;;;24.30;19.75;;;;;;;16.25;100.00;99958.72;5069083;28;20395;-71
2023/09/22 01:30:33;;;;;;;23.25;17.48;;;;;;;16.19;100.00;100012.25;5055273;28;20443;-71
2023/09/22 01:33:02;;;;;;;25.73;19.33;;;;;;;16.13;100.00;100002.91;5039193;28;20406;-72
2023/09/22 01:35:27;;;;;;;26.33;19.10;;;;;;;16.07;100.00;99998.03;5041978;28;20136;-69
2023/09/22 01:38:19;;;;;;;28.73;20.45;;;;;;;16.05;100.00;100005.38;5074392;28;20414;-70
2023/09/22 01:40:44;;;;;;;25.98;18.75;;;;;;;15.94;100.00;100002.78;5057198;28;20055;-70
2023/09/22 01:43:10;;;;;;;28.65;19.50;;;;;;;15.91;100.00;100021.91;5053950;28;20047;-68
2023/09/22 01:45:36;;;;;;;25.50;18.65;;;;;;;15.88;100.00;100009.56;5023265;28;20051;-70
2023/09/22 01:48:02;;;;;;;28.38;19.63;;;;;;;15.87;100.00;100033.91;5077876;28;20040;-68
2023/09/22 01:50:27;;;;;;;28.33;19.85;;;;;;;15.87;100.00;100010.56;5076208;28;20406;-68
2023/09/22 01:52:53;;;;;;;32.97;20.98;;;;;;;15.86;100.00;100032.19;5076147;28;20050;-69
2023/09/22 01:55:20;;;;;;;29.42;20.58;;;;;;;15.89;100.00;100031.94;5074962;28;20039;-71
2023/09/22 01:57:49;;;;;;;26.80;20.83;;;;;;;15.93;100.00;100010.00;5078661;28;20036;-69
2023/09/22 02:00:18;;;;;;;26.95;21.02;;;;;;;15.95;100.00;100008.03;5063803;28;20047;-69
2023/09/22 02:02:47;;;;;;;27.67;20.52;;;;;;;16.01;100.00;100009.34;5079287;28;20043;-70
2023/09/22 02:05:14;;;;;;;26.73;19.33;;;;;;;16.05;100.00;100009.91;5055139;28;20048;-69
2023/09/22 02:07:40;;;;;;;27.90;19.55;;;;;;;16.06;100.00;100009.78;5052511;28;20047;-71
2023/09/22 02:10:09;;;;;;;27.15;19.23;;;;;;;16.11;100.00;100010.25;5062785;28;20059;-68
2023/09/22 02:12:37;;;;;;;26.08;18.33;;;;;;;16.07;100.00;100014.19;5055849;28;20051;-68
2023/09/22 02:15:04;;;;;;;26.40;17.77;;;;;;;16.04;100.00;100030.56;5052739;28;20043;-69
2023/09/22 02:17:31;;;;;;;26.58;18.77;;;;;;;16.01;100.00;100014.72;5036536;28;20050;-71
2023/09/22 02:19:57;;;;;;;27.85;19.40;;;;;;;16.03;100.00;100001.16;5051788;28;20058;-71
2023/09/22 02:22:23;;;;;;;27.60;19.40;;;;;;;16.02;100.00;100016.44;5077313;28;20059;-71
2023/09/22 02:24:48;;;;;;;28.33;18.27;;;;;;;16.00;100.00;100009.47;5055678;28;20050;-71
2023/09/22 02:27:13;;;;;;;25.42;18.00;;;;;;;15.98;100.00;100020.38;5037231;28;20048;-70
2023/09/22 02:29:39;;;;;;;25.58;17.80;;;;;;;15.98;100.00;100015.84;5039453;28;20054;-70
2023/09/22 02:32:04;;;;;;;28.50;18.90;;;;;;;16.01;100.00;100024.63;5053261;28;20070;-69
2023/09/22 02:34:30;;;;;;;25.15;19.02;;;;;;;16.02;100.00;100015.59;5057192;28;20050;-69
2023/09/22 02:36:55;;;;;;;26.50;18.30;;;;;;;16.03;100.00;100026.19;5057028;28;20054;-69
2023/09/22 02:39:20;;;;;;;24.52;17.70;;;;;;;16.10;100.00;100024.66;5072355;28;20043;-68
2023/09/22 02:41:45;;;;;;;23.90;17.90;;;;;;;16.13;100.00;100029.78;5053911;28;20512;-68
2023/09/22 02:44:12;;;;;;;25.98;19.45;;;;;;;16.15;100.00;100011.66;5063414;28;20043;-70
2023/09/22 02:46:37;;;;;;;25.55;18.25;;;;;;;16.19;100.00;100025.69;5073469;28;20052;-71
2023/09/22 02:49:03;;;;;;;26.90;18.65;;;;;;;16.20;100.00;100025.56;5039470;28;20575;-70
2023/09/22 02:51:29;;;;;;;25.10;17.92;;;;;;;16.18;100.00;100034.75;5056785;28;20054;-70
2023/09/22 02:53:55;;;;;;;31.40;17.65;;;;;;;16.17;100.00;100041.09;5039895;28;20059;-70
2023/09/22 02:56:21;;;;;;;26.45;17.98;;;;;;;16.16;100.00;100023.25;5074383;28;20043;-70
2023/09/22 02:58:48;;;;;;;27.13;19.13;;;;;;;16.11;100.00;100018.31;5054007;28;20040;-69
2023/09/22 03:01:14;;;;;;;27.60;18.58;;;;;;;16.12;100.00;100028.09;5022320;28;20533;-70
2023/09/22 03:03:42;;;;;;;25.20;18.38;;;;;;;16.10;100.00;100035.44;5038695;28;20528;-68
2023/09/22 03:06:11;;;;;;;23.83;17.50;;;;;;;16.03;100.00;100028.06;5038890;28;20092;-71
2023/09/22 03:08:36;;;;;;;25.05;19.33;;;;;;;16.01;100.00;100036.25;5073617;28;20513;-70
2023/09/22 03:11:02;;;;;;;30.63;17.50;;;;;;;16.01;100.00;100035.41;5072773;28;20058;-70
2023/09/22 03:13:27;;;;;;;27.33;18.60;;;;;;;15.98;100.00;100042.75;5040091;28;20441;-69
2023/09/22 03:15:53;;;;;;;24.45;17.83;;;;;;;15.95;100.00;100036.75;5036591;28;20040;-70
2023/09/22 03:18:19;;;;;;;22.27;16.27;;;;;;;15.93;100.00;100044.13;5054879;28;20040;-70
2023/09/22 03:20:46;;;;;;;28.23;19.10;;;;;;;15.91;100.00;100025.41;5055060;28;20071;-69
2023/09/22 03:23:11;;;;;;;25.48;18.35;;;;;;;15.93;100.00;100046.81;5037171;28;20368;-71
2023/09/22 03:25:37;;;;;;;26.48;19.67;;;;;;;15.90;100.00;100045.25;5039521;28;20051;-71
2023/09/22 03:28:04;;;;;;;27.58;19.38;;;;;;;15.89;100.00;100080.34;5027251;28;20039;-72
2023/09/22 03:30:29;;;;;;;25.95;17.50;;;;;;;15.89;100.00;100048.06;5058601;28;20051;-72
2023/09/22 03:32:56;;;;;;;29.25;18.20;;;;;;;15.88;100.00;100046.38;5078986;28;20050;-72
2023/09/22 03:35:22;;;;;;;24.63;17.95;;;;;;;15.83;100.00;100043.22;5044006;28;20063;-72
2023/09/22 03:37:48;;;;;;;24.58;18.17;;;;;;;15.83;100.00;100041.38;5060158;28;20036;-71
2023/09/22 03:40:15;;;;;;;23.52;18.20;;;;;;;15.84;100.00;100045.78;5076446;28;20043;-75
2023/09/22 03:42:41;;;;;;;25.70;19.17;;;;;;;15.87;100.00;100044.66;5060842;28;20031;-72
2023/09/22 03:45:08;;;;;;;24.60;17.77;;;;;;;15.91;100.00;100051.50;5078695;28;20051;-73
2023/09/22 03:47:34;;;;;;;25.98;19.83;;;;;;;15.97;100.00;100051.78;5044125;28;20391;-71
2023/09/22 03:50:00;;;;;;;25.58;18.70;;;;;;;16.01;100.00;100047.00;5061361;28;20047;-72
2023/09/22 03:52:28;;;;;;;24.02;18.83;;;;;;;16.08;100.00;100058.06;5027091;28;20048;-73
2023/09/22 03:54:53;;;;;;;23.40;18.27;;;;;;;16.13;100.00;100078.22;5077937;28;20051;-73
2023/09/22 03:57:19;;;;;;;29.10;18.05;;;;;;;16.20;100.00;100062.38;5060066;28;20031;-73
2023/09/22 03:59:44;;;;;;;28.85;18.23;;;;;;;16.31;100.00;100057.75;5059713;28;20050;-73
2023/09/22 04:02:10;;;;;;;26.70;17.55;;;;;;;16.44;100.00;100054.81;5059628;28;20043;-72
2023/09/22 04:04:35;;;;;;;25.98;18.40;;;;;;;16.56;100.00;100061.78;5077650;28;20058;-74
2023/09/22 04:07:00;;;;;;;27.67;17.25;;;;;;;16.68;100.00;100067.94;5059423;28;20040;-73
2023/09/22 04:09:28;;;;;;;21.20;16.98;;;;;;;16.78;100.00;100062.59;5059506;28;20051;-73
2023/09/22 04:11:53;;;;;;;27.13;17.85;;;;;;;16.89;100.00;100066.00;5077674;28;20051;-73
2023/09/22 04:14:20;;;;;;;23.02;17.35;;;;;;;16.99;100.00;100061.47;5059095;28;20051;-73
2023/09/22 04:16:45;;;;;;;27.52;18.75;;;;;;;17.15;100.00;100058.25;5077661;28;20042;-72
2023/09/22 04:19:10;;;;;;;23.08;16.40;;;;;;;17.30;99.64;100067.59;5077614;28;20379;-71
2023/09/22 04:21:43;;;;;;;23.55;16.90;;;;;;;17.42;97.84;100057.50;5076936;28;20055;-71
2023/09/22 04:24:09;;;;;;;22.10;16.98;;;;;;;17.59;96.20;100064.88;5077194;28;20054;-70
2023/09/22 04:26:42;;;;;;;24.45;17.67;;;;;;;17.72;95.03;100065.44;5074976;28;20051;-71
2023/09/22 04:29:11;;;;;;;23.48;16.73;;;;;;;17.87;93.92;100067.69;5077402;28;20058;-72
2023/09/22 04:31:37;;;;;;;23.67;17.50;;;;;;;17.96;92.96;100064.94;5078285;28;20043;-71
2023/09/22 04:34:03;;;;;;;21.48;16.80;;;;;;;18.09;91.68;100070.88;5077852;28;20039;-71
2023/09/22 04:36:30;;;;;;;23.25;16.63;;;;;;;18.18;90.95;100052.94;5075413;28;20046;-71
2023/09/22 04:38:55;;;;;;;21.75;16.60;;;;;;;18.31;89.84;100066.97;5042016;28;20043;-71
2023/09/22 04:41:20;;;;;;;26.50;17.15;;;;;;;18.42;89.38;100066.75;5058631;28;20054;-70
2023/09/22 04:43:46;;;;;;;20.30;15.93;;;;;;;18.54;88.78;100066.56;5076790;28;20066;-70
2023/09/22 04:46:12;;;;;;;23.90;16.45;;;;;;;18.70;88.16;100066.81;5076912;28;20050;-71
2023/09/22 04:48:38;;;;;;;21.83;14.82;;;;;;;18.83;86.65;100094.31;5059013;28;20050;-70
2023/09/22 04:51:06;;;;;;;23.50;14.73;;;;;;;19.00;86.06;100058.34;5076767;28;20055;-70
2023/09/22 04:53:32;;;;;;;22.42;15.63;;;;;;;19.16;85.19;100068.50;5058535;28;20066;-70
2023/09/22 04:56:06;;;;;;;27.23;15.45;;;;;;;19.37;84.42;100073.56;5059220;28;20413;-70
2023/09/22 04:58:32;;;;;;;23.77;14.02;;;;;;;19.52;83.24;100074.78;5078667;28;20035;-70
2023/09/22 05:01:01;;;;;;;22.30;14.93;;;;;;;19.65;82.13;100087.88;5059166;28;20048;-70
2023/09/22 05:03:26;;;;;;;20.58;15.68;;;;;;;19.76;81.13;100074.09;5059976;28;20047;-70
2023/09/22 05:05:53;;;;;;;23.83;16.30;;;;;;;19.84;80.31;100085.84;5076791;28;20043;-70
2023/09/22 05:08:18;;;;;;;26.02;15.90;;;;;;;19.95;79.52;100076.59;5042429;28;20054;-70
2023/09/22 05:10:47;;;;;;;24.65;16.98;;;;;;;20.05;78.08;100065.66;5075836;28;20051;-70
2023/09/22 05:13:14;;;;;;;24.77;17.48;;;;;;;20.07;76.92;100088.03;5079634;28;20415;-70
2023/09/22 05:15:41;;;;;;;25.83;17.15;;;;;;;20.03;75.90;100083.91;5078379;28;20436;-71
2023/09/22 05:18:12;;;;;;;23.40;17.70;;;;;;;20.09;75.71;100078.72;5078941;28;20039;-70
2023/09/22 05:20:39;;;;;;;26.13;19.55;;;;;;;19.99;74.15;100079.81;5058006;28;20051;-71
2023/09/22 05:23:04;;;;;;;24.67;17.48;;;;;;;20.09;74.65;100078.72;5058577;28;20051;-71
2023/09/22 05:25:30;;;;;;;29.40;18.90;;;;;;;20.22;72.99;100083.69;5073586;28;20043;-71
2023/09/22 05:27:56;;;;;;;29.02;18.42;;;;;;;20.39;72.25;100088.22;5074187;28;20059;-72
2023/09/22 05:30:21;;;;;;;26.42;19.17;;;;;;;20.52;72.61;100102.19;5078697;28;20044;-70
2023/09/22 05:32:47;;;;;;;32.30;20.02;;;;;;;20.71;71.23;100106.50;5076479;28;20047;-71
2023/09/22 05:35:12;;;;;;;25.33;18.90;;;;;;;21.27;69.81;100102.28;5076066;28;20051;-70
2023/09/22 05:37:38;;;;;;;23.83;17.17;;;;;;;21.80;68.27;100099.06;5076072;28;20035;-71
2023/09/22 05:40:10;;;;;;;25.85;16.67;;;;;;;22.38;66.28;100104.25;5076186;28;20040;-71
2023/09/22 05:42:35;;;;;;;22.75;17.65;;;;;;;22.96;62.33;100094.03;5057923;28;20524;-71
2023/09/22 05:45:02;;;;;;;23.55;17.38;;;;;;;23.62;60.75;100104.34;5075943;28;20058;-69
2023/09/22 05:47:29;;;;;;;27.25;18.63;;;;;;;24.26;58.85;100115.72;5073306;28;20524;-71
2023/09/22 05:49:55;;;;;;;20.55;16.15;;;;;;;24.87;56.95;100094.53;5058077;28;20044;-71
2023/09/22 05:52:20;;;;;;;26.33;17.05;;;;;;;25.16;55.93;100110.03;5076602;28;20054;-70
2023/09/22 05:54:47;;;;;;;24.70;16.48;;;;;;;25.53;53.80;100100.75;5058186;28;20115;-70
2023/09/22 05:57:13;;;;;;;22.25;16.42;;;;;;;26.02;53.22;100095.34;5076326;28;20470;-70
2023/09/22 05:59:38;;;;;;;24.83;16.65;;;;;;;26.13;52.96;100100.25;5076166;28;20386;-70
2023/09/22 06:02:05;;;;;;;20.95;15.65;;;;;;;25.90;53.31;100116.91;5076071;28;20051;-70
2023/09/22 06:04:32;;;;;;;21.02;16.95;;;;;;;25.73;53.08;100112.75;5073257;28;20050;-69
2023/09/22 06:06:58;;;;;;;31.08;16.27;;;;;;;25.70;53.17;100106.84;5051575;28;20066;-70
2023/09/22 06:09:23;;;;;;;21.75;16.95;;;;;;;25.55;53.89;100110.44;5057560;28;20039;-72
2023/09/22 06:11:49;;;;;;;24.73;16.67;;;;;;;25.77;53.41;100111.31;5058202;28;20066;-71
2023/09/22 06:14:15;;;;;;;21.05;16.00;;;;;;;25.85;52.57;100113.03;5041080;28;20028;-70
2023/09/22 06:16:40;;;;;;;20.02;15.25;;;;;;;25.72;51.75;100104.75;5075935;28;20047;-72
2023/09/22 06:19:05;;;;;;;27.30;16.23;;;;;;;26.12;50.86;100109.50;5039776;28;20517;-71
2023/09/22 06:21:31;;;;;;;23.48;14.15;;;;;;;27.04;48.91;100117.47;5075350;28;20074;-71
2023/09/22 06:23:57;;;;;;;31.27;14.82;;;;;;;27.80;46.72;100110.72;5057555;28;20389;-71
2023/09/22 06:26:22;;;;;;;24.67;14.52;;;;;;;28.00;44.71;100115.34;5057550;28;20043;-71
2023/09/22 06:28:48;;;;;;;21.27;14.32;;;;;;;28.59;43.32;100107.06;5075291;28;20047;-72
2023/09/22 06:31:13;;;;;;;16.17;12.25;;;;;;;28.87;42.97;100115.03;5075528;28;20044;-71
2023/09/22 06:33:39;;;;;;;19.08;12.88;;;;;;;29.15;41.68;100123.78;5056879;28;20043;-71
2023/09/22 06:36:05;;;;;;;26.75;12.88;;;;;;;29.91;40.80;100125.69;5056422;28;20051;-71
2023/09/22 06:38:33;;;;;;;18.50;12.82;;;;;;;30.44;38.92;100109.56;5056879;28;20394;-71
2023/09/22 06:41:00;;;;;;;20.42;12.50;;;;;;;30.83;38.23;100111.03;5076513;28;20527;-73
2023/09/22 06:43:26;;;;;;;14.48;11.57;;;;;;;30.52;37.61;100114.75;5080425;28;20050;-72
2023/09/22 06:45:52;;;;;;;18.65;11.57;;;;;;;30.65;37.01;100120.16;5077353;28;20056;-71
2023/09/22 06:48:22;;;;;;;23.48;11.73;;;;;;;31.01;36.36;100123.97;5077871;28;20043;-72
2023/09/22 06:50:50;;;;;;;17.08;11.30;;;;;;;31.42;35.73;100109.44;5070832;28;20055;-72
2023/09/22 06:53:16;;;;;;;19.13;12.20;;;;;;;31.66;34.79;100111.25;5055811;28;20044;-74
2023/09/22 06:55:41;;;;;;;18.55;11.23;;;;;;;32.13;33.68;100105.81;5057300;28;20048;-72
2023/09/22 06:58:07;;;;;;;17.83;13.15;;;;;;;32.73;32.18;100094.56;5057862;28;20028;-72
2023/09/22 07:00:32;;;;;;;18.83;11.90;;;;;;;33.33;31.51;100133.66;5059871;28;20058;-71
2023/09/22 07:02:57;;;;;;;20.85;11.13;;;;;;;33.83;30.80;100119.16;5045063;28;20457;-72
2023/09/22 07:05:22;;;;;;;14.90;10.63;;;;;;;34.31;30.25;100126.91;5060190;28;20059;-73
2023/09/22 07:07:49;;;;;;;19.95;11.10;;;;;;;34.68;28.83;100120.75;5043412;28;20047;-72
2023/09/22 07:10:16;;;;;;;16.38;11.35;;;;;;;35.13;28.85;100112.25;5061571;28;20059;-72
2023/09/22 07:12:44;;;;;;;21.83;12.52;;;;;;;35.59;28.17;100117.22;5059877;28;20047;-71
2023/09/22 07:15:10;;;;;;;18.17;12.63;;;;;;;35.83;27.44;100119.69;5048619;28;20485;-72
2023/09/22 07:17:36;;;;;;;19.15;11.70;;;;;;;36.16;27.30;100119.41;5079334;28;20394;-71
2023/09/22 07:20:04;;;;;;;21.27;13.00;;;;;;;36.16;26.77;100119.41;5079361;28;20047;-72
2023/09/22 07:22:33;;;;;;;15.68;12.27;;;;;;;36.58;26.41;100071.38;5079278;28;20058;-72
2023/09/22 07:24:59;;;;;;;18.10;12.30;;;;;;;36.99;25.83;100120.53;5079091;28;20081;-70
2023/09/22 07:27:24;;;;;;;18.70;11.63;;;;;;;37.02;25.58;100139.44;5078678;28;20042;-71
2023/09/22 07:29:50;;;;;;;20.20;11.32;;;;;;;36.50;25.71;100135.78;5078799;28;20047;-73
2023/09/22 07:32:18;;;;;;;18.27;11.10;;;;;;;36.57;25.73;100126.09;5078713;28;20105;-72
2023/09/22 07:34:45;;;;;;;19.38;12.02;;;;;;;36.52;25.65;100123.31;5078969;28;20046;-72
2023/09/22 07:37:11;;;;;;;19.55;11.18;;;;;;;37.32;25.09;100127.63;5079247;28;20043;-73
2023/09/22 07:39:39;;;;;;;14.85;10.70;;;;;;;37.79;24.22;100127.50;5079104;28;20414;-71
2023/09/22 07:42:06;;;;;;;19.30;12.02;;;;;;;36.74;24.53;100123.19;5078535;28;20043;-72
2023/09/22 07:44:31;;;;;;;13.38;11.98;;;;;;;37.15;24.81;100129.75;5079089;28;20540;-71
2023/09/22 07:46:58;;;;;;;16.52;11.02;;;;;;;38.12;23.74;100130.88;5060422;28;20580;-72
2023/09/22 07:49:24;;;;;;;24.38;11.00;;;;;;;37.23;23.83;100123.72;5078321;28;20039;-71
2023/09/22 07:51:49;;;;;;;15.00;11.80;;;;;;;36.60;24.74;100131.13;5059997;28;20047;-71
2023/09/22 07:54:14;;;;;;;18.88;11.23;;;;;;;37.04;24.75;100122.50;5078152;28;20043;-71
2023/09/22 07:56:39;;;;;;;18.27;12.15;;;;;;;37.39;24.37;100128.19;5059117;28;20049;-71
2023/09/22 07:59:04;;;;;;;18.05;11.27;;;;;;;37.41;24.29;100125.16;5077723;28;20036;-74
2023/09/22 08:01:30;;;;;;;13.80;11.20;;;;;;;37.17;24.66;100118.41;5077926;28;20047;-71
2023/09/22 08:03:55;;;;;;;15.82;11.18;;;;;;;38.11;24.30;100140.31;5078698;28;20051;-70
2023/09/22 08:06:21;;;;;;;23.02;11.60;;;;;;;38.41;23.11;100129.16;5077429;28;20517;-71
2023/09/22 08:08:49;;;;;;;11.50;10.20;;;;;;;37.56;23.36;100127.97;5077384;28;20051;-72
2023/09/22 08:11:17;;;;;;;11.43;10.02;;;;;;;37.35;23.79;100137.38;5077070;28;20039;-72
2023/09/22 08:13:46;;;;;;;22.27;11.35;;;;;;;36.67;24.42;100128.97;5077557;28;20040;-72
2023/09/22 08:16:12;;;;;;;16.30;10.80;;;;;;;37.40;23.96;100115.97;5078092;28;20044;-71
2023/09/22 08:18:40;;;;;;;14.15;9.75;;;;;;;38.45;22.65;100133.06;5077958;28;20051;-71
2023/09/22 08:21:06;;;;;;;20.25;10.20;;;;;;;38.82;22.17;100123.53;5077388;28;20058;-72
2023/09/22 08:23:31;;;;;;;17.80;11.48;;;;;;;39.88;21.35;100133.31;5077380;28;20437;-72
2023/09/22 08:25:56;;;;;;;16.25;10.43;;;;;;;40.72;20.38;100126.44;5076917;28;20042;-72
2023/09/22 08:28:22;;;;;;;16.88;10.68;;;;;;;41.38;19.73;100124.78;5077191;28;20047;-73
2023/09/22 08:30:48;;;;;;;18.30;9.98;;;;;;;41.56;19.59;100161.19;5058920;28;20497;-72
2023/09/22 08:33:13;;;;;;;13.25;10.00;;;;;;;42.20;18.56;100126.03;5074785;28;20051;-71
2023/09/22 08:35:39;;;;;;;11.50;9.73;;;;;;;42.93;17.84;100121.59;5076835;28;20047;-74
2023/09/22 08:38:05;;;;;;;11.70;10.50;;;;;;;43.96;17.34;100122.66;5058607;28;20032;-72
2023/09/22 08:40:30;;;;;;;15.50;11.32;;;;;;;44.56;16.77;100115.75;5074669;28;20058;-72
2023/09/22 08:42:56;;;;;;;12.02;10.85;;;;;;;44.89;16.49;100127.50;5076944;28;20070;-72
2023/09/22 08:45:21;;;;;;;12.88;11.13;;;;;;;44.61;16.42;100119.25;5076550;28;20739;-70
2023/09/22 08:47:47;;;;;;;17.02;12.13;;;;;;;44.57;16.43;100117.44;5041036;28;20047;-71
2023/09/22 08:50:14;;;;;;;11.93;10.73;;;;;;;44.45;15.61;100118.88;5076569;28;20050;-72
2023/09/22 08:52:41;;;;;;;12.18;10.20;;;;;;;43.57;16.39;100130.91;5076697;28;20050;-71
2023/09/22 08:55:14;;;;;;;12.40;10.43;;;;;;;43.57;16.59;100125.31;5076662;28;20044;-71
2023/09/22 08:57:44;;;;;;;12.98;10.23;;;;;;;42.85;16.44;100125.13;5058631;28;20054;-70
2023/09/22 09:00:30;;;;;;;13.00;9.90;;;;;;;41.94;16.66;100122.81;5041788;28;20047;-71
2023/09/22 09:03:01;;;;;;;11.98;9.48;;;;;;;41.22;18.04;100113.78;5058499;28;20047;-71
2023/09/22 09:05:31;;;;;;;13.48;9.80;;;;;;;41.41;17.79;100126.97;5074472;28;20048;-70
2023/09/22 09:08:35;;;;;;;10.05;9.05;;;;;;;41.43;18.21;100121.88;5076424;28;20040;-70
2023/09/22 09:11:10;;;;;;;;;;;;;;;41.68;16.68;100118.75;4994797;28;20049;-71
2023/09/22 09:13:35;;;;;;;9.15;8.02;;;;;;;41.14;17.43;100136.00;4994108;28;20021;-71
2023/09/22 09:16:09;;;;;;;12.75;8.60;;;;;;;41.87;17.14;100077.56;4993827;28;20056;-72
2023/09/22 09:18:35;;;;;;;10.88;8.77;;;;;;;42.36;16.50;100112.56;4993912;28;20488;-72
2023/09/22 09:21:15;;;;;;;10.48;7.72;;;;;;;41.26;17.06;100112.06;4993522;28;20061;-73
2023/09/22 09:23:53;;;;;;;15.48;8.50;;;;;;;39.71;17.44;100114.16;4993221;28;20381;-72
2023/09/22 09:26:31;;;;;;;10.50;8.80;;;;;;;37.76;19.04;100121.63;4977938;28;20079;-72
2023/09/22 09:29:00;;;;;;;10.13;7.85;;;;;;;36.05;20.57;100112.13;4993860;28;20556;-72
2023/09/22 09:31:45;;;;;;;10.77;8.40;;;;;;;36.37;20.67;100103.78;4994008;28;20056;-72
2023/09/22 09:34:12;;;;;;;10.63;8.13;;;;;;;36.77;20.55;100125.44;4977662;28;20060;-73
2023/09/22 09:36:38;;;;;;;10.48;7.90;;;;;;;36.25;19.94;100103.13;4993686;28;20045;-72
2023/09/22 09:39:03;;;;;;;11.45;7.07;;;;;;;35.84;20.63;100077.81;4993786;28;20041;-70
2023/09/22 09:41:29;;;;;;;13.95;7.85;;;;;;;36.22;19.98;100095.34;4977243;28;20060;-72
2023/09/22 09:43:56;;;;;;;9.98;7.53;;;;;;;36.93;19.10;100096.59;4993256;28;20073;-73
2023/09/22 09:46:23;;;;;;;9.73;7.88;;;;;;;36.99;18.90;100098.31;4993720;28;20049;-72
2023/09/22 09:48:51;;;;;;;10.07;7.40;;;;;;;36.88;19.05;100096.59;5065193;28;20066;-71
2023/09/22 09:51:20;;;;;;;14.30;7.18;;;;;;;36.27;19.11;100093.44;5056754;28;20047;-72
2023/09/22 09:53:46;;;;;;;9.68;7.10;;;;;;;36.00;19.38;100090.72;5075764;28;20043;-72
2023/09/22 09:56:18;;;;;;;9.93;7.82;;;;;;;36.11;20.02;100116.63;5057004;28;20039;-72
2023/09/22 09:58:47;;;;;;;11.40;7.00;;;;;;;36.31;19.58;100083.47;5057345;28;20036;-71
2023/09/22 10:01:13;;;;;;;9.88;6.90;;;;;;;35.87;18.93;100084.78;5053721;28;20039;-72
2023/09/22 10:03:39;;;;;;;10.57;7.00;;;;;;;36.01;18.88;100083.22;5076406;28;20048;-75
2023/09/22 10:06:11;;;;;;;9.52;7.55;;;;;;;35.74;19.29;100086.06;5040999;28;20445;-74
2023/09/22 10:08:42;;;;;;;9.07;7.05;;;;;;;35.09;19.67;100081.44;5045171;28;20059;-75
2023/09/22 10:11:12;;;;;;;9.30;6.95;;;;;;;34.20;19.62;100084.31;5052088;28;20378;-73
2023/09/22 10:13:38;;;;;;;8.15;6.97;;;;;;;32.86;21.11;100093.41;5033118;28;20058;-72
2023/09/22 10:16:06;;;;;;;11.55;6.95;;;;;;;31.22;22.45;100119.91;5053986;28;20051;-73
2023/09/22 10:18:49;;;;;;;8.57;6.68;;;;;;;30.33;24.00;100094.66;5075005;28;20039;-72
2023/09/22 10:21:29;;;;;;;8.98;6.25;;;;;;;29.68;24.09;100096.03;5075251;28;20048;-72
2023/09/22 10:24:14;;;;;;;10.77;6.88;;;;;;;29.41;24.07;100100.84;5054279;28;20448;-72
2023/09/22 10:27:07;;;;;;;8.40;7.22;;;;;;;28.45;24.76;100100.75;5063088;28;20044;-72
2023/09/22 10:29:36;;;;;;;7.28;6.32;;;;;;;27.72;26.29;100094.47;5074592;28;20043;-72
2023/09/22 10:32:25;;;;;;;8.75;6.43;;;;;;;27.50;26.54;100095.69;5076370;28;20043;-71
2023/09/22 10:35:12;;;;;;;10.50;6.95;;;;;;;26.89;27.65;100097.56;5046365;28;20133;-73
2023/09/22 10:37:56;;;;;;;11.57;6.95;;;;;;;26.84;28.02;100095.47;5057889;28;20521;-74
2023/09/22 10:40:22;;;;;;;;;;;;;;;26.98;27.75;100086.25;5077453;28;20055;-72
2023/09/22 10:42:50;;;;;;;10.68;7.35;;;;;;;26.54;28.43;100096.75;5080737;28;19916;-75
2023/09/22 10:45:18;;;;;;;8.93;6.82;;;;;;;26.16;29.26;100091.66;5078361;28;20048;-72
2023/09/22 10:47:51;;;;;;;9.45;7.30;;;;;;;26.11;29.89;100093.28;5074698;28;20043;-73
2023/09/22 10:50:26;;;;;;;10.68;7.25;;;;;;;26.04;29.64;100085.06;5058175;28;20050;-73
2023/09/22 10:52:56;;;;;;;10.05;7.00;;;;;;;26.03;29.62;100081.47;5054883;28;20039;-70
2023/09/22 10:55:35;;;;;;;11.48;7.38;;;;;;;26.08;29.25;100083.59;5064927;28;20834;-71
2023/09/22 10:58:03;;;;;;;8.18;6.50;;;;;;;25.96;29.95;100085.22;5079510;28;20048;-72
2023/09/22 11:00:32;;;;;;;9.68;6.85;;;;;;;25.93;29.96;100085.59;5058289;28;20044;-71
2023/09/22 11:03:11;;;;;;;10.52;6.30;;;;;;;25.95;30.00;100094.47;5036265;28;20047;-70
2023/09/22 11:05:42;;;;;;;10.77;7.07;;;;;;;25.78;30.82;100082.97;5053657;28;20039;-72
2023/09/22 11:08:15;;;;;;;17.08;6.57;;;;;;;25.95;29.63;100106.22;5075848;28;20058;-71
2023/09/22 11:10:48;;;;;;;11.40;6.87;;;;;;;25.54;30.12;100083.31;5036784;28;20543;-73